Time;durP1;ratioP1;P1;durP2;ratioP2;P2;SDS_P1;SDS_P2;PMS_P1;PMS_P2;Temp;Humidity;BMP_temperature;BMP_pressure;BME280_temperature;BME280_humidity;BME280_pressure;Samples;Min_cycle;Max_cycle;Signal;HPM_P1;HPM_P2
2022/07/07 00:02:10;;;;;;;60.90;4.70;;;;;;;;;;5091757;28;20912;-67
2022/07/07 00:04:37;;;;;;;61.60;4.63;;;;;;;;;;5093919;28;20494;-67
2022/07/07 00:07:05;;;;;;;60.97;4.90;;;;;;;;;;5094431;28;20543;-65
2022/07/07 00:09:33;;;;;;;59.97;4.20;;;;;;;;;;5094032;28;20446;-66
2022/07/07 00:12:00;;;;;;;60.27;4.60;;;;;;;;;;5094291;28;20446;-67
2022/07/07 00:14:36;;;;;;;60.57;4.50;;;;;;;;;;5092780;28;20474;-66
2022/07/07 00:17:04;;;;;;;62.40;3.83;;;;;;;;;;5092948;28;20485;-67
2022/07/07 00:19:32;;;;;;;62.97;4.63;;;;;;;;;;5092922;28;20474;-66
2022/07/07 00:21:59;;;;;;;61.47;4.43;;;;;;;;;;5093686;28;20446;-66
2022/07/07 00:24:26;;;;;;;61.03;4.10;;;;;;;;;;5093658;28;20470;-66
2022/07/07 00:26:54;;;;;;;59.90;3.97;;;;;;;;;;5093794;28;20442;-66
2022/07/07 00:29:21;;;;;;;60.00;3.97;;;;;;;;;;5093554;28;20453;-66
2022/07/07 00:31:52;;;;;;;59.60;3.97;;;;;;;;;;5093791;28;20542;-66
2022/07/07 00:34:19;;;;;;;60.23;3.97;;;;;;;;;;5090637;28;20483;-66
2022/07/07 00:36:46;;;;;;;59.50;3.60;;;;;;;;;;5093922;28;20509;-66
2022/07/07 00:39:13;;;;;;;65.70;4.20;;;;;;;;;;5093506;28;20482;-67
2022/07/07 00:41:41;;;;;;;60.20;4.13;;;;;;;;;;5093440;28;20470;-67
2022/07/07 00:44:12;;;;;;;61.03;3.97;;;;;;;;;;5092407;28;20496;-67
2022/07/07 00:46:44;;;;;;;59.47;3.90;;;;;;;;;;5092029;28;20540;-67
2022/07/07 00:49:14;;;;;;;61.30;4.00;;;;;;;;;;5093458;28;20889;-67
2022/07/07 00:51:45;;;;;;;60.27;4.17;;;;;;;;;;5093448;28;20450;-67
2022/07/07 00:54:13;;;;;;;59.37;3.83;;;;;;;;;;5093043;28;20470;-67
2022/07/07 00:56:41;;;;;;;60.50;4.20;;;;;;;;;;5093639;28;20513;-66
2022/07/07 00:59:09;;;;;;;59.47;4.10;;;;;;;;;;5093309;28;20514;-66
2022/07/07 01:01:37;;;;;;;59.87;4.30;;;;;;;;;;5090685;28;20457;-67
2022/07/07 01:04:09;;;;;;;62.30;4.10;;;;;;;;;;5091336;28;20558;-66
2022/07/07 01:06:38;;;;;;;61.20;4.20;;;;;;;;;;5074715;28;20452;-67
2022/07/07 01:09:06;;;;;;;59.70;4.07;;;;;;;;;;5092698;28;20450;-67
2022/07/07 01:11:49;;;;;;;59.37;3.87;;;;;;;;;;5093023;28;20947;-67
2022/07/07 01:14:17;;;;;;;59.80;4.03;;;;;;;;;;5092864;28;20561;-67
2022/07/07 01:16:45;;;;;;;60.83;4.60;;;;;;;;;;5092871;28;20474;-67
2022/07/07 01:19:12;;;;;;;59.70;3.77;;;;;;;;;;5092955;28;20505;-67
2022/07/07 01:21:47;;;;;;;60.80;4.13;;;;;;;;;;5093017;28;20847;-67
2022/07/07 01:24:16;;;;;;;59.77;4.00;;;;;;;;;;5092239;28;21062;-67
2022/07/07 01:26:44;;;;;;;61.23;3.70;;;;;;;;;;5091932;28;20545;-66
2022/07/07 01:29:12;;;;;;;59.93;4.13;;;;;;;;;;5092437;28;20454;-66
2022/07/07 01:31:39;;;;;;;60.40;4.70;;;;;;;;;;5092853;28;20454;-66
2022/07/07 01:34:08;;;;;;;61.63;4.33;;;;;;;;;;5092233;28;20508;-67
2022/07/07 01:36:35;;;;;;;59.77;3.57;;;;;;;;;;5090616;28;20510;-66
2022/07/07 01:39:03;;;;;;;60.27;4.63;;;;;;;;;;5092861;28;20537;-67
2022/07/07 01:41:33;;;;;;;59.80;4.10;;;;;;;;;;5092489;28;20555;-66
2022/07/07 01:44:03;;;;;;;59.10;3.77;;;;;;;;;;5091933;28;20480;-66
2022/07/07 01:46:31;;;;;;;59.70;3.70;;;;;;;;;;5092226;28;20473;-67
2022/07/07 01:48:59;;;;;;;59.77;3.90;;;;;;;;;;5092159;28;20912;-67
2022/07/07 01:51:27;;;;;;;59.40;3.60;;;;;;;;;;5092214;28;20460;-66
2022/07/07 01:53:56;;;;;;;60.87;4.37;;;;;;;;;;5092112;28;20480;-66
2022/07/07 01:56:27;;;;;;;59.80;4.10;;;;;;;;;;5091303;28;20532;-67
2022/07/07 01:58:56;;;;;;;61.10;4.20;;;;;;;;;;5092231;28;20450;-67
2022/07/07 02:01:24;;;;;;;59.80;4.10;;;;;;;;;;5092535;28;20884;-67
2022/07/07 02:03:53;;;;;;;59.47;3.57;;;;;;;;;;5090200;28;21067;-68
2022/07/07 02:06:20;;;;;;;59.37;4.00;;;;;;;;;;5091772;28;20451;-67
2022/07/07 02:08:47;;;;;;;59.60;3.60;;;;;;;;;;5089631;28;20452;-67
2022/07/07 02:11:15;;;;;;;59.50;3.50;;;;;;;;;;5092143;28;20471;-67
2022/07/07 02:13:43;;;;;;;60.37;4.90;;;;;;;;;;5091822;28;20467;-66
2022/07/07 02:16:12;;;;;;;59.30;4.00;;;;;;;;;;5091835;28;20970;-68
2022/07/07 02:18:39;;;;;;;59.57;3.90;;;;;;;;;;5090419;28;20447;-67
2022/07/07 02:21:08;;;;;;;59.43;3.97;;;;;;;;;;5091599;28;20459;-67
2022/07/07 02:23:38;;;;;;;60.57;3.70;;;;;;;;;;5091327;28;20558;-68
2022/07/07 02:26:05;;;;;;;59.60;4.20;;;;;;;;;;5091796;28;20529;-67
2022/07/07 02:28:33;;;;;;;58.90;3.23;;;;;;;;;;5090115;28;20451;-68
2022/07/07 02:31:01;;;;;;;61.30;3.77;;;;;;;;;;5091883;28;20809;-67
2022/07/07 02:33:31;;;;;;;61.47;4.00;;;;;;;;;;5091618;28;20500;-68
2022/07/07 02:35:58;;;;;;;59.60;3.57;;;;;;;;;;5091296;28;20486;-68
2022/07/07 02:38:26;;;;;;;59.30;3.70;;;;;;;;;;5091646;28;20538;-67
2022/07/07 02:40:54;;;;;;;59.50;3.87;;;;;;;;;;5088234;28;20447;-67
2022/07/07 02:43:22;;;;;;;60.63;3.80;;;;;;;;;;5091094;28;20473;-67
2022/07/07 02:45:50;;;;;;;60.77;4.27;;;;;;;;;;5091332;28;20475;-67
2022/07/07 02:48:19;;;;;;;61.13;4.07;;;;;;;;;;5091521;28;20485;-68
2022/07/07 02:50:48;;;;;;;60.73;4.07;;;;;;;;;;5089982;28;20443;-68
2022/07/07 02:53:16;;;;;;;60.23;3.63;;;;;;;;;;5089578;28;20509;-67
2022/07/07 02:55:45;;;;;;;59.77;4.13;;;;;;;;;;5090400;28;21105;-67
2022/07/07 02:58:19;;;;;;;61.70;4.17;;;;;;;;;;5090326;28;20954;-67
2022/07/07 03:00:46;;;;;;;59.30;4.00;;;;;;;;;;5090777;28;20447;-67
2022/07/07 03:03:14;;;;;;;59.80;3.93;;;;;;;;;;5090046;28;20463;-67
2022/07/07 03:05:41;;;;;;;59.90;4.07;;;;;;;;;;5090841;28;20452;-67
2022/07/07 03:08:10;;;;;;;59.50;3.80;;;;;;;;;;5092967;28;20488;-67
2022/07/07 03:10:37;;;;;;;60.30;4.00;;;;;;;;;;5095187;28;20453;-67
2022/07/07 03:13:05;;;;;;;60.03;3.80;;;;;;;;;;5092403;28;20562;-67
2022/07/07 03:15:32;;;;;;;59.27;3.73;;;;;;;;;;5094686;28;20450;-68
2022/07/07 03:17:59;;;;;;;59.67;3.83;;;;;;;;;;5094564;28;20479;-68
2022/07/07 03:20:29;;;;;;;61.50;4.33;;;;;;;;;;5095504;28;20842;-67
2022/07/07 03:22:57;;;;;;;59.30;3.73;;;;;;;;;;5094979;28;20534;-67
2022/07/07 03:25:26;;;;;;;59.93;4.40;;;;;;;;;;5093679;28;20836;-68
2022/07/07 03:27:53;;;;;;;59.23;3.70;;;;;;;;;;5094451;28;20452;-68
2022/07/07 03:30:20;;;;;;;59.70;3.90;;;;;;;;;;5094341;28;20484;-67
2022/07/07 03:32:48;;;;;;;62.60;4.13;;;;;;;;;;5094629;28;20452;-67
2022/07/07 03:35:16;;;;;;;67.70;4.67;;;;;;;;;;5094619;28;20460;-67
2022/07/07 03:37:44;;;;;;;59.60;3.70;;;;;;;;;;5094670;28;20484;-67
2022/07/07 03:40:14;;;;;;;59.90;4.10;;;;;;;;;;5094306;28;20489;-67
2022/07/07 03:42:47;;;;;;;60.23;4.00;;;;;;;;;;5094373;28;20476;-67
2022/07/07 03:45:14;;;;;;;59.47;3.87;;;;;;;;;;5092614;28;20450;-67
2022/07/07 03:47:42;;;;;;;59.90;4.00;;;;;;;;;;5094335;28;20446;-67
2022/07/07 03:50:10;;;;;;;59.40;3.80;;;;;;;;;;5094614;28;20929;-66
2022/07/07 03:52:37;;;;;;;59.47;3.77;;;;;;;;;;5093271;28;20505;-66
2022/07/07 03:55:06;;;;;;;59.40;3.90;;;;;;;;;;5093947;28;20456;-67
2022/07/07 03:57:33;;;;;;;59.53;3.50;;;;;;;;;;5094601;28;20886;-67
2022/07/07 04:00:01;;;;;;;59.97;3.70;;;;;;;;;;5094776;28;20820;-67
2022/07/07 04:02:29;;;;;;;59.80;4.20;;;;;;;;;;5094595;28;20505;-65
2022/07/07 04:04:56;;;;;;;62.50;4.20;;;;;;;;;;5094092;28;20477;-67
2022/07/07 04:07:24;;;;;;;60.03;3.93;;;;;;;;;;5093051;28;20822;-67
2022/07/07 04:09:57;;;;;;;59.70;3.97;;;;;;;;;;5094515;28;20449;-66
2022/07/07 04:12:25;;;;;;;59.50;3.87;;;;;;;;;;5094525;28;20450;-66
2022/07/07 04:14:53;;;;;;;63.37;4.53;;;;;;;;;;5094297;28;20508;-67
2022/07/07 04:17:22;;;;;;;59.77;4.70;;;;;;;;;;5091981;28;20519;-66
2022/07/07 04:19:49;;;;;;;60.27;3.93;;;;;;;;;;5092035;28;20449;-67
2022/07/07 04:22:16;;;;;;;59.67;4.00;;;;;;;;;;5094176;28;20459;-67
2022/07/07 04:24:44;;;;;;;59.37;3.73;;;;;;;;;;5094079;28;20468;-67
2022/07/07 04:27:11;;;;;;;66.50;4.30;;;;;;;;;;5093020;28;20457;-67
2022/07/07 04:29:38;;;;;;;61.90;4.27;;;;;;;;;;5094052;28;20530;-67
2022/07/07 04:32:06;;;;;;;60.07;4.37;;;;;;;;;;5093869;28;20467;-68
2022/07/07 04:34:35;;;;;;;60.77;4.03;;;;;;;;;;5093624;28;20480;-67
2022/07/07 04:37:02;;;;;;;59.50;3.67;;;;;;;;;;5093248;28;20499;-67
2022/07/07 04:39:29;;;;;;;59.10;3.73;;;;;;;;;;5094010;28;20539;-67
2022/07/07 04:41:56;;;;;;;59.10;3.60;;;;;;;;;;5093828;28;20465;-67
2022/07/07 04:44:24;;;;;;;59.90;3.73;;;;;;;;;;5093360;28;20465;-67
2022/07/07 04:46:54;;;;;;;59.30;3.50;;;;;;;;;;5091757;28;20496;-66
2022/07/07 04:49:23;;;;;;;60.77;3.80;;;;;;;;;;5090971;28;20460;-67
2022/07/07 04:51:52;;;;;;;59.10;3.43;;;;;;;;;;5093430;28;20450;-67
2022/07/07 04:54:21;;;;;;;59.17;3.57;;;;;;;;;;5093510;28;20462;-67
2022/07/07 04:56:48;;;;;;;59.20;4.00;;;;;;;;;;5092752;28;20484;-67
2022/07/07 04:59:15;;;;;;;60.40;3.63;;;;;;;;;;5093133;28;20452;-67
2022/07/07 05:01:43;;;;;;;64.30;3.70;;;;;;;;;;5093342;28;20812;-67
2022/07/07 05:04:11;;;;;;;59.67;4.00;;;;;;;;;;5093224;28;20821;-68
2022/07/07 05:06:38;;;;;;;58.77;3.20;;;;;;;;;;5091607;28;20502;-67
2022/07/07 05:09:09;;;;;;;59.03;3.33;;;;;;;;;;5092703;28;20538;-67
2022/07/07 05:11:37;;;;;;;60.70;3.30;;;;;;;;;;5093191;28;20446;-67
2022/07/07 05:14:04;;;;;;;62.63;3.70;;;;;;;;;;5092796;28;20470;-67
2022/07/07 05:16:31;;;;;;;62.60;3.70;;;;;;;;;;5092745;28;20458;-66
2022/07/07 05:18:59;;;;;;;59.00;3.20;;;;;;;;;;5093003;28;20445;-68
2022/07/07 05:21:26;;;;;;;58.67;3.13;;;;;;;;;;5091107;28;20448;-67
2022/07/07 05:23:54;;;;;;;59.30;3.60;;;;;;;;;;5092755;28;20466;-67
2022/07/07 05:26:24;;;;;;;59.63;3.50;;;;;;;;;;5091265;28;20452;-67
2022/07/07 05:28:51;;;;;;;59.07;3.40;;;;;;;;;;5090925;28;20445;-67
2022/07/07 05:31:20;;;;;;;59.60;3.83;;;;;;;;;;5092647;28;20449;-67
2022/07/07 05:33:49;;;;;;;63.40;3.70;;;;;;;;;;5092536;28;20530;-68
2022/07/07 05:36:16;;;;;;;61.80;3.63;;;;;;;;;;5092543;28;21040;-66
2022/07/07 05:38:45;;;;;;;59.67;3.70;;;;;;;;;;5092330;28;20485;-67
2022/07/07 05:41:15;;;;;;;60.60;3.63;;;;;;;;;;5092495;28;20849;-66
2022/07/07 05:43:44;;;;;;;59.80;3.70;;;;;;;;;;5092940;28;20465;-66
2022/07/07 05:46:12;;;;;;;58.80;3.60;;;;;;;;;;5092215;28;20546;-67
2022/07/07 05:48:39;;;;;;;60.63;3.27;;;;;;;;;;5091863;28;20939;-67
2022/07/07 05:51:06;;;;;;;59.60;4.00;;;;;;;;;;5092166;28;20544;-67
2022/07/07 05:53:34;;;;;;;59.40;3.43;;;;;;;;;;5091042;28;20473;-67
2022/07/07 05:56:01;;;;;;;62.60;3.30;;;;;;;;;;5092220;28;20452;-67
2022/07/07 05:58:28;;;;;;;59.60;3.80;;;;;;;;;;5091959;28;20778;-67
2022/07/07 06:00:57;;;;;;;59.73;3.60;;;;;;;;;;5091743;28;20455;-67
2022/07/07 06:03:27;;;;;;;60.07;3.23;;;;;;;;;;5090849;28;20989;-67
2022/07/07 06:05:54;;;;;;;59.00;3.30;;;;;;;;;;5092115;28;20533;-67
2022/07/07 06:08:21;;;;;;;59.97;4.03;;;;;;;;;;5091182;28;20443;-67
2022/07/07 06:10:51;;;;;;;58.27;2.83;;;;;;;;;;5092062;28;20483;-67
2022/07/07 06:13:20;;;;;;;58.77;3.10;;;;;;;;;;5091842;28;20474;-68
2022/07/07 06:15:48;;;;;;;59.23;3.50;;;;;;;;;;5090771;28;20529;-67
2022/07/07 06:18:17;;;;;;;59.50;3.03;;;;;;;;;;5091458;28;20482;-67
2022/07/07 06:20:44;;;;;;;59.90;3.50;;;;;;;;;;5091865;28;20442;-67
2022/07/07 06:23:11;;;;;;;58.47;3.07;;;;;;;;;;5091687;28;20966;-67
2022/07/07 06:25:38;;;;;;;59.47;3.10;;;;;;;;;;5089682;28;20450;-67
2022/07/07 06:28:06;;;;;;;59.47;3.43;;;;;;;;;;5091315;28;20453;-67
2022/07/07 06:30:33;;;;;;;58.77;3.20;;;;;;;;;;5090842;28;20450;-66
2022/07/07 06:33:01;;;;;;;58.60;3.03;;;;;;;;;;5091654;28;20462;-67
2022/07/07 06:35:29;;;;;;;59.40;3.07;;;;;;;;;;5091278;28;20457;-67
2022/07/07 06:37:57;;;;;;;58.83;3.30;;;;;;;;;;5091521;28;20863;-68
2022/07/07 06:40:24;;;;;;;60.60;3.43;;;;;;;;;;5091975;28;20826;-67
2022/07/07 06:42:51;;;;;;;58.90;3.37;;;;;;;;;;5090996;28;20465;-67
2022/07/07 06:45:19;;;;;;;59.07;2.90;;;;;;;;;;5091467;28;20449;-67
2022/07/07 06:47:46;;;;;;;59.40;3.47;;;;;;;;;;5090729;28;20447;-67
2022/07/07 06:50:14;;;;;;;58.77;2.73;;;;;;;;;;5091232;28;20426;-67
2022/07/07 06:52:43;;;;;;;59.30;3.20;;;;;;;;;;5091636;28;20545;-68
2022/07/07 06:55:10;;;;;;;59.70;3.53;;;;;;;;;;5090790;28;20466;-67
2022/07/07 06:57:38;;;;;;;58.77;2.90;;;;;;;;;;5090250;28;20955;-67
2022/07/07 07:00:10;;;;;;;58.80;3.23;;;;;;;;;;5090257;28;20837;-67
2022/07/07 07:02:42;;;;;;;60.13;3.50;;;;;;;;;;5090762;28;20932;-67
2022/07/07 07:05:09;;;;;;;58.97;3.37;;;;;;;;;;5091573;28;20447;-67
2022/07/07 07:07:36;;;;;;;59.23;2.90;;;;;;;;;;5090599;28;22003;-67
2022/07/07 07:10:09;;;;;;;59.80;3.03;;;;;;;;;;5091557;28;20438;-67
2022/07/07 07:12:38;;;;;;;59.20;3.03;;;;;;;;;;5090856;28;20434;-68
2022/07/07 07:15:06;;;;;;;58.30;2.70;;;;;;;;;;5091021;28;20438;-67
2022/07/07 07:17:33;;;;;;;58.50;2.60;;;;;;;;;;5090742;28;20493;-68
2022/07/07 07:20:01;;;;;;;58.50;2.77;;;;;;;;;;5091122;28;20442;-66
2022/07/07 07:22:28;;;;;;;58.43;3.23;;;;;;;;;;5090414;28;20454;-69
2022/07/07 07:24:55;;;;;;;59.37;3.00;;;;;;;;;;5091272;28;20546;-67
2022/07/07 07:27:24;;;;;;;60.40;3.20;;;;;;;;;;5088457;28;21027;-66
2022/07/07 07:29:51;;;;;;;58.87;3.40;;;;;;;;;;5090461;28;20455;-66
2022/07/07 07:32:18;;;;;;;58.87;3.30;;;;;;;;;;5090608;28;20450;-68
2022/07/07 07:34:45;;;;;;;59.43;3.13;;;;;;;;;;5090438;28;20485;-68
2022/07/07 07:37:13;;;;;;;59.20;2.90;;;;;;;;;;5090340;28;20454;-68
2022/07/07 07:39:41;;;;;;;59.33;3.20;;;;;;;;;;5091156;28;20481;-68
2022/07/07 07:42:08;;;;;;;58.30;2.90;;;;;;;;;;5090820;28;20456;-68
2022/07/07 07:47:22;;;;;;;59.80;3.07;;;;;;;;;;5090832;28;20553;-68
2022/07/07 07:49:49;;;;;;;59.97;2.93;;;;;;;;;;5090557;28;20486;-68
2022/07/07 07:52:17;;;;;;;59.47;3.03;;;;;;;;;;5089479;28;20495;-68
2022/07/07 07:54:45;;;;;;;59.57;3.53;;;;;;;;;;5091855;28;20462;-67
2022/07/07 07:57:12;;;;;;;59.27;3.37;;;;;;;;;;5094673;28;20453;-67
2022/07/07 07:59:43;;;;;;;59.00;3.37;;;;;;;;;;5092529;28;20451;-67
2022/07/07 08:02:11;;;;;;;58.17;2.93;;;;;;;;;;5094607;28;20450;-68
2022/07/07 08:04:38;;;;;;;58.67;2.80;;;;;;;;;;5094984;28;20473;-68
2022/07/07 08:07:05;;;;;;;58.23;2.73;;;;;;;;;;5094135;28;20489;-67
2022/07/07 08:09:33;;;;;;;60.20;3.20;;;;;;;;;;5093957;28;20446;-68
2022/07/07 08:12:00;;;;;;;60.20;3.00;;;;;;;;;;5094518;28;20634;-68
2022/07/07 08:14:27;;;;;;;58.90;2.80;;;;;;;;;;5094245;28;20464;-68
2022/07/07 08:16:56;;;;;;;58.77;2.87;;;;;;;;;;5094274;28;20446;-68
2022/07/07 08:19:23;;;;;;;59.47;2.80;;;;;;;;;;5092714;28;21001;-67
2022/07/07 08:21:52;;;;;;;60.00;3.23;;;;;;;;;;5093840;28;20576;-67
2022/07/07 08:24:19;;;;;;;58.80;2.70;;;;;;;;;;5094281;28;20574;-68
2022/07/07 08:26:46;;;;;;;60.07;2.90;;;;;;;;;;5093730;28;20460;-67
2022/07/07 08:29:14;;;;;;;58.90;2.90;;;;;;;;;;5091706;28;20451;-68
2022/07/07 08:31:41;;;;;;;59.47;2.93;;;;;;;;;;5093768;28;20450;-66
2022/07/07 08:34:10;;;;;;;59.17;3.27;;;;;;;;;;5093652;28;20478;-66
2022/07/07 08:36:38;;;;;;;60.00;3.07;;;;;;;;;;5092726;28;20447;-66
2022/07/07 08:39:05;;;;;;;60.27;4.07;;;;;;;;;;5093250;28;20529;-65
2022/07/07 08:41:33;;;;;;;60.40;3.10;;;;;;;;;;5093770;28;20474;-66
2022/07/07 08:44:00;;;;;;;61.30;2.80;;;;;;;;;;5093748;28;20469;-66
2022/07/07 08:46:27;;;;;;;58.40;3.40;;;;;;;;;;5093735;28;20446;-65
2022/07/07 08:48:55;;;;;;;59.10;3.57;;;;;;;;;;5092688;28;20490;-66
2022/07/07 08:51:23;;;;;;;59.27;3.50;;;;;;;;;;5093680;28;20960;-66
2022/07/07 08:53:53;;;;;;;59.60;3.43;;;;;;;;;;5093381;28;20557;-66
2022/07/07 08:56:20;;;;;;;65.17;3.87;;;;;;;;;;5093395;28;20446;-67
2022/07/07 08:58:50;;;;;;;59.63;4.27;;;;;;;;;;5092512;28;20565;-65
2022/07/07 09:01:17;;;;;;;58.50;3.53;;;;;;;;;;5093570;28;20450;-67
2022/07/07 09:03:44;;;;;;;59.17;3.43;;;;;;;;;;5093503;28;20466;-67
2022/07/07 09:06:11;;;;;;;59.60;3.47;;;;;;;;;;5093209;28;20450;-66
2022/07/07 09:08:41;;;;;;;61.73;3.50;;;;;;;;;;5092872;28;20477;-68
2022/07/07 09:11:09;;;;;;;59.00;3.67;;;;;;;;;;5092632;28;20458;-66
2022/07/07 09:13:37;;;;;;;60.47;3.50;;;;;;;;;;5092738;28;20474;-67
2022/07/07 09:16:06;;;;;;;58.87;3.57;;;;;;;;;;5094394;28;20454;-65
2022/07/07 09:18:34;;;;;;;59.13;3.90;;;;;;;;;;5094018;28;20485;-66
2022/07/07 09:21:02;;;;;;;58.87;3.23;;;;;;;;;;5092904;28;20472;-66
2022/07/07 09:23:31;;;;;;;60.70;2.87;;;;;;;;;;5093156;28;20498;-68
2022/07/07 09:26:01;;;;;;;59.47;3.13;;;;;;;;;;5093272;28;20511;-67
2022/07/07 09:28:29;;;;;;;58.97;3.47;;;;;;;;;;5091243;28;20507;-67
2022/07/07 09:30:57;;;;;;;64.00;3.03;;;;;;;;;;5091120;28;20457;-68
2022/07/07 09:33:25;;;;;;;58.17;2.80;;;;;;;;;;5092269;28;20474;-65
2022/07/07 09:38:40;;;;;;;60.50;3.50;;;;;;;;;;5092508;28;20473;-68
2022/07/07 09:41:12;;;;;;;59.97;3.20;;;;;;;;;;5092905;28;20507;-66
2022/07/07 09:43:40;;;;;;;58.97;3.00;;;;;;;;;;5092678;28;20466;-64
2022/07/07 09:46:10;;;;;;;59.67;2.73;;;;;;;;;;5092654;28;20468;-65
2022/07/07 09:48:38;;;;;;;59.27;3.67;;;;;;;;;;5090957;28;20496;-65
2022/07/07 09:51:13;;;;;;;59.43;3.10;;;;;;;;;;5091847;28;20443;-65
2022/07/07 09:53:53;;;;;;;59.20;2.77;;;;;;;;;;5092241;28;20966;-66
2022/07/07 09:56:24;;;;;;;59.30;3.57;;;;;;;;;;5092242;28;20950;-65
2022/07/07 09:58:52;;;;;;;60.20;3.60;;;;;;;;;;5092522;28;20488;-65
2022/07/07 10:01:21;;;;;;;59.23;2.97;;;;;;;;;;5092519;28;20450;-65
2022/07/07 10:03:48;;;;;;;59.00;3.23;;;;;;;;;;5092143;28;20466;-65
2022/07/07 10:06:15;;;;;;;58.60;2.67;;;;;;;;;;5092778;28;20450;-65
2022/07/07 10:08:44;;;;;;;58.67;3.40;;;;;;;;;;5092866;28;20449;-65
2022/07/07 10:11:14;;;;;;;61.23;3.57;;;;;;;;;;5096160;28;20491;-65
2022/07/07 10:13:48;;;;;;;59.50;3.30;;;;;;;;;;5092490;28;20466;-64
2022/07/07 10:16:16;;;;;;;59.50;3.20;;;;;;;;;;5095012;28;20472;-64
2022/07/07 10:18:44;;;;;;;58.50;2.50;;;;;;;;;;5104770;28;20505;-65
2022/07/07 10:21:15;;;;;;;58.90;3.30;;;;;;;;;;5104436;28;20481;-65
2022/07/07 10:23:43;;;;;;;60.40;3.00;;;;;;;;;;5106883;28;20557;-64
2022/07/07 10:26:13;;;;;;;58.37;2.97;;;;;;;;;;5107871;28;20451;-65
2022/07/07 10:28:55;;;;;;;59.00;3.00;;;;;;;;;;5106307;28;20478;-65
2022/07/07 10:31:22;;;;;;;61.63;3.07;;;;;;;;;;5106394;28;20526;-65
2022/07/07 10:33:54;;;;;;;58.77;3.00;;;;;;;;;;5106872;28;20475;-65
2022/07/07 10:36:23;;;;;;;58.67;3.13;;;;;;;;;;5106295;28;20534;-65
2022/07/07 10:38:53;;;;;;;62.07;3.30;;;;;;;;;;5106886;28;20478;-65
2022/07/07 10:41:23;;;;;;;58.70;3.00;;;;;;;;;;5106533;28;20506;-65
2022/07/07 10:43:58;;;;;;;58.97;3.20;;;;;;;;;;5106791;28;20458;-65
2022/07/07 10:46:27;;;;;;;58.57;2.80;;;;;;;;;;5107661;28;20493;-65
2022/07/07 10:49:06;;;;;;;62.60;3.53;;;;;;;;;;5106494;28;20453;-63
2022/07/07 10:51:33;;;;;;;58.97;2.67;;;;;;;;;;5102868;28;20474;-66
2022/07/07 10:54:03;;;;;;;59.00;2.90;;;;;;;;;;5104739;28;20557;-65
2022/07/07 10:56:53;;;;;;;59.13;3.03;;;;;;;;;;5105843;28;20451;-64
2022/07/07 10:59:21;;;;;;;58.47;2.80;;;;;;;;;;5106570;28;20483;-65
2022/07/07 11:02:05;;;;;;;59.63;3.23;;;;;;;;;;5105903;28;21007;-64
2022/07/07 11:05:00;;;;;;;58.40;2.60;;;;;;;;;;5106593;28;20550;-65
2022/07/07 11:07:29;;;;;;;58.17;2.57;;;;;;;;;;5103810;28;20534;-64
2022/07/07 11:09:57;;;;;;;58.20;2.70;;;;;;;;;;5107152;28;20489;-65
2022/07/07 11:12:40;;;;;;;58.70;3.03;;;;;;;;;;5105559;28;20458;-65
2022/07/07 11:15:27;;;;;;;58.40;2.73;;;;;;;;;;5106108;28;20450;-65
2022/07/07 11:18:09;;;;;;;58.83;3.00;;;;;;;;;;5105314;28;20459;-65
2022/07/07 11:20:36;;;;;;;58.37;3.00;;;;;;;;;;5105987;28;20435;-64
2022/07/07 11:23:15;;;;;;;63.23;3.00;;;;;;;;;;5103694;28;20545;-65
2022/07/07 11:25:43;;;;;;;60.27;3.03;;;;;;;;;;5107258;28;20450;-65
2022/07/07 11:28:11;;;;;;;58.50;2.90;;;;;;;;;;5107333;28;20501;-65
2022/07/07 11:30:40;;;;;;;58.30;2.67;;;;;;;;;;5110375;28;20823;-65
2022/07/07 11:33:08;;;;;;;58.57;2.50;;;;;;;;;;5110080;28;20470;-65
2022/07/07 11:35:40;;;;;;;58.90;2.70;;;;;;;;;;5110480;28;20453;-65
2022/07/07 11:38:09;;;;;;;58.43;2.60;;;;;;;;;;5105471;28;20545;-65
2022/07/07 11:40:39;;;;;;;58.30;2.60;;;;;;;;;;5102048;28;21051;-65
2022/07/07 11:43:08;;;;;;;58.10;2.60;;;;;;;;;;5102127;28;20466;-65
2022/07/07 11:45:35;;;;;;;57.67;2.50;;;;;;;;;;5109414;28;20450;-65
2022/07/07 11:48:07;;;;;;;58.00;2.57;;;;;;;;;;5110509;28;20573;-65
2022/07/07 11:50:34;;;;;;;61.33;2.60;;;;;;;;;;5109459;28;20505;-65
2022/07/07 11:53:02;;;;;;;58.37;2.50;;;;;;;;;;5109122;28;20469;-65
2022/07/07 11:55:33;;;;;;;59.93;3.53;;;;;;;;;;5107446;28;20522;-65
2022/07/07 11:58:01;;;;;;;62.10;3.20;;;;;;;;;;5110128;28;20446;-64
2022/07/07 12:00:30;;;;;;;58.53;2.93;;;;;;;;;;5109934;28;20474;-65
2022/07/07 12:02:58;;;;;;;58.90;2.80;;;;;;;;;;5110011;28;20496;-65
2022/07/07 12:05:28;;;;;;;58.27;2.70;;;;;;;;;;5110472;28;20472;-65
2022/07/07 12:07:56;;;;;;;59.37;3.40;;;;;;;;;;5109171;28;20434;-65
2022/07/07 12:10:25;;;;;;;58.83;2.77;;;;;;;;;;5109069;28;20514;-65
2022/07/07 12:12:59;;;;;;;59.20;3.00;;;;;;;;;;5108656;28;20451;-65
2022/07/07 12:15:28;;;;;;;60.20;2.87;;;;;;;;;;5108882;28;20476;-65
2022/07/07 12:17:56;;;;;;;59.20;2.90;;;;;;;;;;5106406;28;20451;-65
2022/07/07 12:20:24;;;;;;;58.83;2.80;;;;;;;;;;5108812;28;20594;-65
2022/07/07 12:22:53;;;;;;;59.43;3.20;;;;;;;;;;5108699;28;20435;-66
2022/07/07 12:25:20;;;;;;;59.87;3.50;;;;;;;;;;5108117;28;20481;-65
2022/07/07 12:27:54;;;;;;;59.50;3.27;;;;;;;;;;5107020;28;20534;-65
2022/07/07 12:30:23;;;;;;;59.87;2.80;;;;;;;;;;5108783;28;20466;-63
2022/07/07 12:32:52;;;;;;;59.17;3.20;;;;;;;;;;5108591;28;20445;-63
2022/07/07 12:35:33;;;;;;;58.87;3.23;;;;;;;;;;5109199;28;20515;-65
2022/07/07 12:38:02;;;;;;;58.50;2.90;;;;;;;;;;5108710;28;20527;-65
2022/07/07 12:40:30;;;;;;;59.03;3.10;;;;;;;;;;5106942;28;20486;-64
2022/07/07 12:42:58;;;;;;;58.67;2.93;;;;;;;;;;5108653;28;20459;-65
2022/07/07 12:45:27;;;;;;;58.40;3.03;;;;;;;;;;5109266;28;20443;-65
2022/07/07 12:47:55;;;;;;;58.70;3.03;;;;;;;;;;5109565;28;20480;-63
2022/07/07 12:50:23;;;;;;;60.07;3.70;;;;;;;;;;5106865;28;20449;-63
2022/07/07 12:52:57;;;;;;;60.60;3.30;;;;;;;;;;5108019;28;20453;-63
2022/07/07 12:55:27;;;;;;;58.90;3.17;;;;;;;;;;5110303;28;20448;-64
2022/07/07 12:57:54;;;;;;;59.90;3.37;;;;;;;;;;5105803;28;20857;-63
2022/07/07 13:00:25;;;;;;;59.90;3.70;;;;;;;;;;5107273;28;20483;-64
2022/07/07 13:02:55;;;;;;;58.70;3.23;;;;;;;;;;5107114;28;20463;-64
2022/07/07 13:05:22;;;;;;;63.27;3.30;;;;;;;;;;5106872;28;20476;-65
2022/07/07 13:07:49;;;;;;;61.27;3.60;;;;;;;;;;5107583;28;20506;-65
2022/07/07 13:10:17;;;;;;;58.87;3.50;;;;;;;;;;5107413;28;20503;-65
2022/07/07 13:12:51;;;;;;;59.80;3.57;;;;;;;;;;5106665;28;20457;-65
2022/07/07 13:15:19;;;;;;;59.07;3.20;;;;;;;;;;5107391;28;20453;-65
2022/07/07 13:17:46;;;;;;;60.13;3.20;;;;;;;;;;5108062;28;20505;-65
2022/07/07 13:20:15;;;;;;;58.60;3.17;;;;;;;;;;5108631;28;20592;-65
2022/07/07 13:22:42;;;;;;;63.60;3.17;;;;;;;;;;5108202;28;20447;-65
2022/07/07 13:25:10;;;;;;;58.40;3.20;;;;;;;;;;5108159;28;20511;-65
2022/07/07 13:27:37;;;;;;;58.13;2.90;;;;;;;;;;5107765;28;20448;-65
2022/07/07 13:30:05;;;;;;;60.30;3.17;;;;;;;;;;5106012;28;20438;-63
2022/07/07 13:32:33;;;;;;;58.47;3.53;;;;;;;;;;5106723;28;20963;-66
2022/07/07 13:35:00;;;;;;;60.37;3.80;;;;;;;;;;5105959;28;20557;-64
2022/07/07 13:37:29;;;;;;;58.60;2.83;;;;;;;;;;5105766;28;20445;-65
2022/07/07 13:39:56;;;;;;;58.20;2.70;;;;;;;;;;5104618;28;20475;-65
2022/07/07 13:42:24;;;;;;;58.60;2.40;;;;;;;;;;5105120;28;20479;-65
2022/07/07 13:44:51;;;;;;;59.27;2.90;;;;;;;;;;5106211;28;20486;-65
2022/07/07 13:47:19;;;;;;;58.97;2.80;;;;;;;;;;5104867;28;20478;-65
2022/07/07 13:49:46;;;;;;;58.17;2.50;;;;;;;;;;5105128;28;20521;-65
2022/07/07 13:52:13;;;;;;;59.67;3.17;;;;;;;;;;5103725;28;20514;-65
2022/07/07 13:54:44;;;;;;;58.43;2.40;;;;;;;;;;5104894;28;20538;-65
2022/07/07 13:57:11;;;;;;;58.47;2.70;;;;;;;;;;5106657;28;20450;-64
2022/07/07 13:59:39;;;;;;;58.90;3.20;;;;;;;;;;5106752;28;20549;-64
2022/07/07 14:02:06;;;;;;;59.97;2.90;;;;;;;;;;5108541;28;20503;-64
2022/07/07 14:04:34;;;;;;;58.60;2.90;;;;;;;;;;5106976;28;20531;-65
2022/07/07 14:07:02;;;;;;;58.57;2.87;;;;;;;;;;5108345;28;20509;-65
2022/07/07 14:09:29;;;;;;;72.43;3.33;;;;;;;;;;5103919;28;20551;-65
2022/07/07 14:12:00;;;;;;;58.50;2.87;;;;;;;;;;5093213;28;20885;-66
2022/07/07 14:14:27;;;;;;;59.77;3.00;;;;;;;;;;5091641;28;20978;-65
2022/07/07 14:16:54;;;;;;;58.67;3.10;;;;;;;;;;5091919;28;20447;-65
2022/07/07 14:19:22;;;;;;;59.77;2.70;;;;;;;;;;5091482;28;20450;-66
2022/07/07 14:21:49;;;;;;;58.40;2.77;;;;;;;;;;5091593;28;20446;-65
2022/07/07 14:24:16;;;;;;;59.00;3.10;;;;;;;;;;5091011;28;20458;-65
2022/07/07 14:26:46;;;;;;;58.57;2.80;;;;;;;;;;5092029;28;20455;-65
2022/07/07 14:29:15;;;;;;;58.27;2.70;;;;;;;;;;5091820;28;20474;-65
2022/07/07 14:31:42;;;;;;;58.80;2.77;;;;;;;;;;5089299;28;20815;-65
2022/07/07 14:34:09;;;;;;;59.00;3.07;;;;;;;;;;5090788;28;20492;-65
2022/07/07 14:36:37;;;;;;;58.70;2.90;;;;;;;;;;5091301;28;20538;-65
2022/07/07 14:39:05;;;;;;;59.10;3.80;;;;;;;;;;5091323;28;20454;-65
2022/07/07 14:41:36;;;;;;;59.00;3.43;;;;;;;;;;5091554;28;20944;-64
2022/07/07 14:44:03;;;;;;;58.77;3.43;;;;;;;;;;5091663;28;20474;-65
2022/07/07 14:46:32;;;;;;;58.87;2.87;;;;;;;;;;5091499;28;20442;-65